Time;durP1;ratioP1;P1;durP2;ratioP2;P2;SDS_P1;SDS_P2;PMS_P1;PMS_P2;Temp;Humidity;BMP_temperature;BMP_pressure;BME280_temperature;BME280_humidity;BME280_pressure;Samples;Min_cycle;Max_cycle;Signal;HPM_P1;HPM_P2
2023/04/28 00:01:24;;;;;;;7.38;5.50;;;;;;;;;;4899863;29;20536;-69
2023/04/28 00:03:50;;;;;;;8.50;4.82;;;;;;;;;;4900125;29;20051;-69
2023/04/28 00:06:16;;;;;;;8.68;5.75;;;;;;;;;;4884178;29;20048;-69
2023/04/28 00:08:42;;;;;;;9.00;4.97;;;;;;;;;;4899686;29;20560;-69
2023/04/28 00:11:11;;;;;;;7.85;5.30;;;;;;;;;;4899993;29;20068;-68
2023/04/28 00:13:38;;;;;;;7.22;4.82;;;;;;;;;;4884387;29;20051;-68
2023/04/28 00:16:04;;;;;;;8.63;5.28;;;;;;;;;;4899660;29;20071;-68
2023/04/28 00:18:32;;;;;;;8.85;5.40;;;;;;;;;;4899905;29;20052;-68
2023/04/28 00:20:58;;;;;;;8.10;5.15;;;;;;;;;;4916631;29;20425;-68
2023/04/28 00:23:24;;;;;;;5.80;4.75;;;;;;;;;;4916345;29;20509;-68
2023/04/28 00:25:51;;;;;;;8.75;5.18;;;6.70;99.90;;;;;;4899451;29;20112;-68
2023/04/28 00:28:17;;;;;;;6.43;5.00;;;;;;;;;;4902555;29;20087;-68
2023/04/28 00:30:43;;;;;;;8.02;5.25;;;;;;;;;;4903194;29;20086;-68
2023/04/28 00:33:10;;;;;;;10.98;5.35;;;;;;;;;;4902978;29;20052;-68
2023/04/28 00:35:36;;;;;;;8.10;5.05;;;;;;;;;;4919927;29;20136;-67
2023/04/28 00:38:02;;;;;;;8.38;4.63;;;;;;;;;;4887276;29;20048;-67
2023/04/28 00:40:38;;;;;;;6.80;5.05;;;;;;;;;;4902995;29;20106;-68
2023/04/28 00:43:04;;;;;;;9.70;5.18;;;;;;;;;;4919713;29;20441;-69
2023/04/28 00:45:31;;;;;;;10.68;5.10;;;6.90;99.90;;;;;;4902658;29;20052;-69
2023/04/28 00:47:58;;;;;;;8.88;5.10;;;;;;;;;;4887100;29;20044;-69
2023/04/28 00:50:25;;;;;;;8.23;5.28;;;6.80;99.90;;;;;;4919950;29;20043;-69
2023/04/28 00:52:51;;;;;;;9.65;4.93;;;;;;;;;;4902918;29;20386;-69
2023/04/28 00:55:17;;;;;;;8.23;5.32;;;;;;;;;;4902846;29;20459;-69
2023/04/28 00:57:43;;;;;;;9.13;5.53;;;;;;;;;;4902438;29;20497;-69
2023/04/28 01:00:09;;;;;;;7.65;5.43;;;;;;;;;;4902592;29;20134;-69
2023/04/28 01:02:36;;;;;;;11.20;5.45;;;;;;;;;;4919408;29;20489;-69
2023/04/28 01:05:02;;;;;;;9.80;6.13;;;;;;;;;;4902569;29;20048;-69
2023/04/28 01:07:28;;;;;;;8.73;5.65;;;;;;;;;;4902342;29;20075;-69
2023/04/28 01:09:55;;;;;;;7.53;5.50;;;6.60;99.90;;;;;;4902385;29;20104;-69
2023/04/28 01:12:21;;;;;;;7.63;5.60;;;6.70;99.90;;;;;;4886818;29;20123;-68
2023/04/28 01:14:48;;;;;;;8.80;5.40;;;6.80;99.90;;;;;;4902255;29;20059;-69
2023/04/28 01:17:15;;;;;;;9.93;5.82;;;;;;;;;;4902233;29;20048;-68
2023/04/28 01:19:41;;;;;;;8.63;5.90;;;;;;;;;;4902114;29;20048;-69
2023/04/28 01:22:12;;;;;;;9.60;5.70;;;;;;;;;;4902248;29;20048;-68
2023/04/28 01:24:39;;;;;;;8.68;5.70;;;;;;;;;;4901999;29;20066;-68
2023/04/28 01:27:05;;;;;;;8.20;5.70;;;;;;;;;;4902047;29;20047;-68
2023/04/28 01:29:31;;;;;;;9.65;6.53;;;;;;;;;;4919017;29;20499;-68
2023/04/28 01:31:57;;;;;;;10.35;5.90;;;;;;;;;;4901920;29;20048;-69
2023/04/28 01:34:23;;;;;;;8.32;5.90;;;;;;;;;;4919047;29;20413;-69
2023/04/28 01:36:49;;;;;;;8.13;5.57;;;;;;;;;;4918767;29;20036;-70
2023/04/28 01:39:16;;;;;;;8.98;6.03;;;;;;;;;;4901495;29;20047;-69
2023/04/28 01:41:42;;;;;;;8.43;5.82;;;;;;;;;;4901771;29;20055;-69
2023/04/28 01:44:08;;;;;;;10.32;5.65;;;;;;;;;;4919545;29;20431;-69
2023/04/28 01:46:35;;;;;;;9.55;5.97;;;;;;;;;;4902731;29;20048;-69
2023/04/28 01:49:01;;;;;;;9.10;5.70;;;;;;;;;;4918732;29;20043;-69
2023/04/28 01:51:27;;;;;;;9.18;6.35;;;;;;;;;;4901802;29;20053;-70
2023/04/28 01:53:53;;;;;;;8.93;5.65;;;;;;;;;;4901685;29;20052;-70
2023/04/28 01:56:19;;;;;;;7.28;5.65;;;;;;;;;;4901501;29;20048;-70
2023/04/28 01:58:46;;;;;;;8.88;5.82;;;;;;;;;;4901706;29;20544;-70
2023/04/28 02:01:12;;;;;;;9.40;6.03;;;;;;;;;;4885908;29;20504;-70
2023/04/28 02:03:38;;;;;;;11.15;5.93;;;;;;;;;;4901436;29;20055;-70
2023/04/28 02:06:04;;;;;;;9.23;6.15;;;;;;;;;;4901313;29;20055;-70
2023/04/28 02:08:30;;;;;;;7.03;5.45;;;;;;;;;;4901460;29;20049;-71
2023/04/28 02:10:57;;;;;;;10.60;6.32;;;;;;;;;;4901217;29;20099;-68
2023/04/28 02:13:23;;;;;;;11.48;5.75;;;;;;;;;;4885732;29;20509;-69
2023/04/28 02:15:49;;;;;;;8.98;5.47;;;;;;;;;;4901160;29;20052;-69
2023/04/28 02:18:15;;;;;;;7.25;5.70;;;;;;;;;;4901191;29;20084;-69
2023/04/28 02:20:41;;;;;;;9.95;5.80;;;;;;;;;;4901093;29;20052;-69
2023/04/28 02:23:07;;;;;;;7.35;5.88;;;;;;;;;;4900921;29;20060;-69
2023/04/28 02:25:34;;;;;;;7.60;6.40;;;;;;;;;;4917906;29;20429;-69
2023/04/28 02:28:00;;;;;;;9.68;6.00;;;;;;;;;;4900778;29;20044;-69
2023/04/28 02:30:26;;;;;;;8.65;6.53;;;;;;;;;;4900831;29;20050;-69
2023/04/28 02:32:52;;;;;;;9.23;6.40;;;;;;;;;;4900820;29;20084;-69
2023/04/28 02:35:18;;;;;;;12.48;7.13;;;;;;;;;;4900886;29;20492;-69
2023/04/28 02:37:45;;;;;;;8.68;6.10;;;;;;;;;;4917960;29;20048;-69
2023/04/28 02:40:11;;;;;;;9.90;6.18;;;;;;;;;;4900831;29;20044;-69
2023/04/28 02:42:37;;;;;;;13.32;6.45;;;;;;;;;;4917713;29;20465;-69
2023/04/28 02:45:03;;;;;;;9.70;6.20;;;;;;;;;;4900621;29;20040;-70
2023/04/28 02:47:30;;;;;;;10.48;6.45;;;;;;;;;;4917750;29;20347;-69
2023/04/28 02:49:56;;;;;;;13.52;7.07;;;;;;;;;;4917017;29;20043;-69
2023/04/28 02:52:22;;;;;;;13.63;7.82;;;;;;;;;;4917073;29;20044;-70
2023/04/28 02:54:53;;;;;;;10.43;6.20;;;;;;;;;;4885035;29;20496;-69
2023/04/28 02:57:19;;;;;;;11.90;7.10;;;;;;;;;;4885784;29;20100;-69
2023/04/28 02:59:45;;;;;;;13.05;7.25;;;;;;;;;;4884888;29;20449;-69
2023/04/28 03:02:11;;;;;;;10.23;6.78;;;;;;;;;;4900569;29;20052;-69
2023/04/28 03:04:37;;;;;;;12.70;7.53;;;;;;;;;;4900472;29;20061;-70
2023/04/28 03:07:03;;;;;;;8.88;6.47;;;;;;;;;;4900262;29;20047;-70
2023/04/28 03:09:30;;;;;;;10.77;6.93;;;;;;;;;;4900238;29;20140;-70
2023/04/28 03:11:56;;;;;;;10.13;7.13;;;;;;;;;;4900062;29;20048;-69
2023/04/28 03:14:22;;;;;;;10.90;7.63;;;;;;;;;;4900230;29;20496;-70
2023/04/28 03:16:48;;;;;;;11.60;7.50;;;;;;;;;;4917562;29;20107;-69
2023/04/28 03:19:14;;;;;;;12.35;7.50;;;;;;;;;;4900227;29;20048;-69
2023/04/28 03:21:41;;;;;;;13.23;7.43;;;7.30;99.90;;;;;;4900254;29;20103;-69
2023/04/28 03:24:07;;;;;;;12.63;7.72;;;;;;;;;;4916849;29;20056;-68
2023/04/28 03:26:33;;;;;;;10.82;7.63;;;;;;;;;;4917068;29;20052;-69
2023/04/28 03:28:59;;;;;;;12.88;7.45;;;;;;;;;;4917623;29;20044;-68
2023/04/28 03:31:25;;;;;;;13.05;7.10;;;;;;;;;;4901086;29;20051;-68
2023/04/28 03:33:51;;;;;;;12.45;7.65;;;;;;;;;;4917389;29;20054;-68
2023/04/28 03:36:17;;;;;;;13.65;7.70;;;;;;;;;;4884793;29;20044;-69
2023/04/28 03:38:43;;;;;;;14.63;7.75;;;;;;;;;;4900216;29;20475;-69
2023/04/28 03:41:10;;;;;;;17.70;8.07;;;;;;;;;;4900019;29;20058;-69
2023/04/28 03:43:36;;;;;;;13.90;8.02;;;;;;;;;;4884521;29;20405;-69
2023/04/28 03:46:03;;;;;;;10.02;7.60;;;6.50;99.90;;;;;;4900236;29;20110;-69
2023/04/28 03:48:29;;;;;;;13.60;8.32;;;;;;;;;;4900218;29;20048;-69
2023/04/28 03:50:55;;;;;;;13.82;8.30;;;;;;;;;;4899862;29;20084;-69
2023/04/28 03:53:21;;;;;;;13.02;8.38;;;;;;;;;;4900111;29;20043;-69
2023/04/28 03:55:47;;;;;;;16.20;8.20;;;;;;;;;;4899877;29;20063;-70
2023/04/28 03:58:14;;;;;;;14.50;9.27;;;;;;;;;;4884605;29;20048;-70
2023/04/28 04:00:40;;;;;;;16.20;8.98;;;;;;;;;;4900120;29;20055;-69
2023/04/28 04:03:06;;;;;;;13.85;8.98;;;;;;;;;;4886890;29;20052;-69
2023/04/28 04:05:33;;;;;;;13.25;8.93;;;;;;;;;;4903527;29;20055;-69
2023/04/28 04:07:59;;;;;;;15.52;9.70;;;;;;;;;;4903497;29;20113;-69
2023/04/28 04:10:25;;;;;;;14.30;9.25;;;;;;;;;;4903316;29;20055;-68
2023/04/28 04:12:51;;;;;;;14.60;9.85;;;;;;;;;;4903761;29;20048;-69
2023/04/28 04:15:17;;;;;;;14.73;9.63;;;;;;;;;;4920526;29;20055;-69
2023/04/28 04:17:43;;;;;;;14.02;10.07;;;;;;;;;;4903515;29;20048;-69
2023/04/28 04:20:09;;;;;;;20.67;10.43;;;;;;;;;;4903227;29;20080;-69
2023/04/28 04:22:35;;;;;;;15.50;9.93;;;;;;;;;;4920162;29;20050;-69
2023/04/28 04:25:02;;;;;;;17.08;10.60;;;;;;;;;;4919750;29;20060;-69
2023/04/28 04:27:28;;;;;;;18.63;11.18;;;;;;;;;;4919962;29;20121;-69
2023/04/28 04:29:54;;;;;;;16.08;9.93;;;;;;;;;;4887523;29;20036;-69
2023/04/28 04:32:20;;;;;;;17.23;11.60;;;;;;;;;;4903044;29;20048;-68
2023/04/28 04:34:46;;;;;;;15.05;9.95;;;;;;;;;;4920130;29;20493;-69
2023/04/28 04:37:12;;;;;;;20.10;11.48;;;;;;;;;;4903210;29;20043;-69
2023/04/28 04:39:39;;;;;;;16.25;10.95;;;;;;;;;;4887163;29;20083;-69
2023/04/28 04:42:05;;;;;;;19.33;10.98;;;;;;;;;;4902844;29;20040;-69
2023/04/28 04:44:31;;;;;;;18.08;10.20;;;;;;;;;;4919799;29;20092;-69
2023/04/28 04:46:57;;;;;;;19.95;11.25;;;;;;;;;;4887433;29;20063;-69
2023/04/28 04:49:23;;;;;;;17.15;11.00;;;;;;;;;;4902710;29;20084;-69
2023/04/28 04:51:49;;;;;;;17.95;10.77;;;;;;;;;;4902686;29;20044;-68
2023/04/28 04:54:15;;;;;;;16.90;10.75;;;;;;;;;;4902652;29;20581;-69
2023/04/28 04:56:41;;;;;;;22.13;12.02;;;;;;;;;;4902480;29;20044;-69
2023/04/28 04:59:07;;;;;;;19.45;11.13;;;;;;;;;;4903009;29;20335;-69
2023/04/28 05:01:33;;;;;;;19.40;10.63;;;;;;;;;;4919746;29;20370;-69
2023/04/28 05:04:00;;;;;;;18.95;10.63;;;;;;;;;;4919450;29;20079;-69
2023/04/28 05:06:26;;;;;;;19.08;11.02;;;;;;;;;;4902317;29;20414;-69
2023/04/28 05:08:52;;;;;;;18.05;11.13;;;;;;;;;;4902544;29;20433;-69
2023/04/28 05:11:18;;;;;;;17.60;11.13;;;;;;;;;;4902597;29;20092;-69
2023/04/28 05:13:44;;;;;;;19.27;10.77;;;;;;;;;;4901491;29;20040;-69
2023/04/28 05:16:10;;;;;;;20.38;11.32;;;;;;;;;;4919208;29;20056;-69
2023/04/28 05:18:36;;;;;;;21.23;10.70;;;;;;;;;;4919458;29;20044;-70
2023/04/28 05:21:02;;;;;;;19.83;11.85;;;;;;;;;;4902272;29;20123;-69
2023/04/28 05:23:28;;;;;;;19.73;11.50;;;;;;;;;;4902254;29;20135;-70
2023/04/28 05:25:54;;;;;;;21.17;11.75;;;;;;;;;;4919025;29;20098;-69
2023/04/28 05:28:21;;;;;;;20.33;11.45;;;;;;;;;;4902127;29;20096;-70
2023/04/28 05:30:47;;;;;;;19.98;11.52;;;;;;;;;;4902114;29;20040;-70
2023/04/28 05:33:13;;;;;;;22.35;11.20;;;;;;;;;;4902097;29;20040;-70
2023/04/28 05:35:39;;;;;;;24.13;11.52;;;;;;;;;;4886455;29;20135;-70
2023/04/28 05:38:05;;;;;;;23.23;11.57;;;;;;;;;;4902107;29;20060;-70
2023/04/28 05:40:32;;;;;;;18.65;10.77;;;;;;;;;;4919036;29;20044;-70
2023/04/28 05:42:58;;;;;;;19.73;10.88;;;;;;;;;;4901825;29;20127;-70
2023/04/28 05:45:24;;;;;;;20.40;11.02;;;;;;;;;;4886119;29;20405;-69
2023/04/28 05:47:50;;;;;;;18.48;11.32;;;;;;;;;;4901829;29;20075;-69
2023/04/28 05:50:16;;;;;;;22.65;11.73;;;;;;;;;;4918420;29;20516;-69
2023/04/28 05:52:42;;;;;;;21.98;11.50;;;;;;;;;;4901525;29;20051;-69
2023/04/28 05:55:08;;;;;;;17.55;11.18;;;8.20;99.90;;;;;;4901668;29;20095;-70
2023/04/28 05:57:35;;;;;;;20.33;10.80;;;;;;;;;;4901500;29;20520;-70
2023/04/28 06:00:01;;;;;;;20.08;10.60;;;;;;;;;;4901357;29;20086;-69
2023/04/28 06:02:27;;;;;;;17.23;10.45;;;;;;;;;;4885575;29;20490;-68
2023/04/28 06:04:53;;;;;;;21.73;11.10;;;;;;;;;;4901405;29;20052;-69
2023/04/28 06:07:19;;;;;;;15.90;10.60;;;;;;;;;;4918405;29;20036;-69
2023/04/28 06:09:45;;;;;;;16.05;10.07;;;;;;;;;;4901514;29;20048;-69
2023/04/28 06:12:11;;;;;;;20.00;11.40;;;;;;;;;;4885765;29;20543;-69
2023/04/28 06:14:39;;;;;;;19.98;12.07;;;;;;;;;;4901285;29;20052;-69
2023/04/28 06:17:05;;;;;;;21.50;11.20;;;;;;;;;;4918256;29;20151;-69
2023/04/28 06:19:31;;;;;;;21.17;11.35;;;;;;;;;;4918619;29;20036;-69
2023/04/28 06:21:57;;;;;;;18.88;10.52;;;;;;;;;;4885883;29;20044;-69
2023/04/28 06:24:23;;;;;;;17.92;11.25;;;;;;;;;;4900610;29;20203;-69
2023/04/28 06:26:49;;;;;;;19.13;10.57;;;;;;;;;;4901224;29;20048;-69
2023/04/28 06:29:15;;;;;;;22.00;10.10;;;;;;;;;;4885474;29;20123;-69
2023/04/28 06:31:42;;;;;;;18.10;11.02;;;;;;;;;;4885517;29;20052;-69
2023/04/28 06:34:08;;;;;;;15.57;10.38;;;;;;;;;;4900998;29;20044;-69
2023/04/28 06:36:34;;;;;;;17.85;10.25;;;;;;;;;;4900913;29;20047;-69
2023/04/28 06:39:00;;;;;;;23.25;11.38;;;;;;;;;;4885120;29;20086;-69
2023/04/28 06:41:28;;;;;;;16.85;11.10;;;;;;;;;;4900902;29;20052;-69
2023/04/28 06:43:54;;;;;;;16.42;10.00;;;;;;;;;;4917759;29;20051;-69
2023/04/28 06:46:20;;;;;;;22.08;10.57;;;;;;;;;;4900330;29;20048;-69
2023/04/28 06:48:46;;;;;;;24.52;10.93;;;;;;;;;;4900533;29;20161;-69
2023/04/28 06:51:12;;;;;;;21.58;11.05;;;;;;;;;;4900558;29;20128;-68
2023/04/28 06:53:38;;;;;;;19.48;10.57;;;;;;;;;;4900791;29;20190;-69
2023/04/28 06:56:04;;;;;;;18.88;11.02;;;6.60;99.90;;;;;;4900700;29;20063;-69
2023/04/28 06:58:30;;;;;;;17.77;10.55;;;;;;;;;;4885082;29;20184;-69
2023/04/28 07:00:57;;;;;;;60.85;40.53;;;;;;;;;;4884841;29;20083;-69
2023/04/28 07:03:23;;;;;;;19.48;11.32;;;;;;;;;;4901173;29;20040;-69
2023/04/28 07:05:49;;;;;;;18.83;10.52;;;;;;;;;;4917203;29;20568;-69
2023/04/28 07:08:16;;;;;;;17.73;10.25;;;;;;;;;;4900241;29;20040;-69
2023/04/28 07:10:42;;;;;;;20.67;11.27;;;;;;;;;;4900473;29;20048;-69
2023/04/28 07:13:08;;;;;;;19.20;10.60;;;;;;;;;;4900279;29;20048;-69
2023/04/28 07:15:34;;;;;;;21.65;11.40;;;;;;;;;;4900474;29;20044;-69
2023/04/28 07:18:00;;;;;;;15.95;10.73;;;;;;;;;;4917286;29;20052;-69
2023/04/28 07:20:26;;;;;;;18.17;10.32;;;;;;;;;;4900101;29;20048;-69
2023/04/28 07:22:52;;;;;;;18.63;11.32;;;;;;;;;;4900265;29;20062;-70
2023/04/28 07:25:19;;;;;;;19.75;10.82;;;;;;;;;;4884331;29;20111;-68
2023/04/28 07:27:45;;;;;;;20.45;10.90;;;;;;;;;;4900251;29;20036;-68
2023/04/28 07:30:12;;;;;;;22.65;11.32;;;;;;;;;;4899926;29;20084;-68
2023/04/28 07:32:38;;;;;;;20.60;11.85;;;;;;;;;;4899940;29;20051;-68
2023/04/28 07:35:04;;;;;;;18.95;10.85;;;8.80;99.90;;;;;;4900188;29;20096;-68
2023/04/28 07:37:30;;;;;;;20.58;10.98;;;;;;;;;;4901859;29;20397;-68
2023/04/28 07:39:56;;;;;;;21.67;11.60;;;;;;;;;;4904050;29;20048;-68
2023/04/28 07:42:22;;;;;;;20.20;11.55;;;;;;;;;;4921037;29;20044;-67
2023/04/28 07:44:48;;;;;;;20.30;11.60;;;;;;;;;;4920552;29;20477;-67
2023/04/28 07:47:15;;;;;;;18.30;11.90;;;;;;;;;;4903726;29;20075;-68
2023/04/28 07:49:41;;;;;;;18.98;10.95;;;;;;;;;;4903994;29;20048;-67
2023/04/28 07:52:07;;;;;;;22.27;11.65;;;;;;;;;;4920677;29;20123;-67
2023/04/28 07:54:33;;;;;;;18.15;12.00;;;;;;;;;;4888336;29;20050;-68
2023/04/28 07:56:59;;;;;;;24.77;13.13;;;;;;;;;;4903671;29;20104;-68
2023/04/28 07:59:25;;;;;;;20.55;12.27;;;;;;;;;;4920455;29;20513;-68
2023/04/28 08:01:52;;;;;;;21.23;12.45;;;;;;;;;;4903408;29;20404;-68
2023/04/28 08:04:18;;;;;;;19.42;11.75;;;;;;;;;;4903208;29;20080;-68
2023/04/28 08:06:44;;;;;;;20.15;12.63;;;;;;;;;;4920374;29;20047;-68
2023/04/28 08:09:10;;;;;;;19.08;12.23;;;;;;;;;;4903349;29;20056;-68
2023/04/28 08:11:36;;;;;;;20.17;11.88;;;;;;;;;;4887793;29;20123;-68
2023/04/28 08:14:02;;;;;;;18.98;12.18;;;;;;;;;;4903195;29;20044;-68
2023/04/28 08:16:29;;;;;;;24.05;12.25;;;;;;;;;;4903346;29;20059;-68
2023/04/28 08:18:56;;;;;;;20.33;12.02;;;;;;;;;;4903196;29;20485;-68
2023/04/28 08:21:22;;;;;;;20.42;12.32;;;;;;;;;;4920161;29;20040;-68
2023/04/28 08:23:48;;;;;;;22.23;12.57;;;;;;;;;;4902866;29;20063;-68
2023/04/28 08:26:14;;;;;;;20.98;12.25;;;;;;;;;;4887335;29;20059;-68
2023/04/28 08:28:40;;;;;;;25.27;12.38;;;;;;;;;;4903217;29;20065;-68
2023/04/28 08:31:06;;;;;;;20.70;12.30;;;;;;;;;;4902863;29;20052;-68
2023/04/28 08:33:32;;;;;;;18.98;11.77;;;;;;;;;;4902874;29;20132;-68
2023/04/28 08:35:58;;;;;;;21.27;11.70;;;;;;;;;;4902996;29;20048;-68
2023/04/28 08:38:24;;;;;;;20.13;12.48;;;;;;;;;;4903199;29;20044;-68
2023/04/28 08:40:51;;;;;;;23.83;12.90;;;;;;;;;;4903013;29;20519;-68
2023/04/28 08:43:19;;;;;;;22.58;12.65;;;;;;;;;;4902878;29;20184;-68
2023/04/28 08:45:45;;;;;;;20.17;11.70;;;;;;;;;;4902668;29;20067;-68
2023/04/28 08:48:19;;;;;;;21.17;12.68;;;8.50;99.90;;;;;;4902461;29;20051;-68
2023/04/28 08:50:53;;;;;;;18.30;12.50;;;8.50;99.90;;;;;;4902878;29;20103;-68
2023/04/28 08:53:26;;;;;;;18.65;12.68;;;;;;;;;;4902456;29;20059;-68
2023/04/28 08:55:55;;;;;;;20.98;13.05;;;8.50;99.90;;;;;;4902568;29;20048;-68
2023/04/28 08:58:25;;;;;;;23.02;13.23;;;8.70;99.90;;;;;;4871474;29;20052;-68
2023/04/28 09:00:52;;;;;;;24.45;13.75;;;;;;;;;;4887276;29;20079;-68
2023/04/28 09:03:18;;;;;;;19.85;12.93;;;;;;;;;;4919367;29;20536;-68
2023/04/28 09:05:45;;;;;;;24.63;13.20;;;;;;;;;;4902099;29;20047;-68
2023/04/28 09:08:11;;;;;;;19.33;12.65;;;;;;;;;;4902269;29;20051;-68
2023/04/28 09:10:37;;;;;;;25.10;12.88;;;;;;;;;;4902596;29;20107;-68
2023/04/28 09:13:03;;;;;;;21.48;14.10;;;;;;;;;;4902588;29;20075;-68
2023/04/28 09:15:33;;;;;;;22.90;12.02;;;;;;;;;;4902274;29;20059;-68
2023/04/28 09:18:01;;;;;;;25.38;12.88;;;9.80;99.90;;;;;;4886484;29;20083;-68
2023/04/28 09:20:28;;;;;;;24.27;13.50;;;9.90;99.90;;;;;;4902446;29;20049;-68
2023/04/28 09:22:55;;;;;;;19.67;12.35;;;;;;;;;;4901969;29;20048;-68
2023/04/28 09:25:22;;;;;;;21.55;13.55;;;10.00;99.90;;;;;;4901751;29;20256;-68
2023/04/28 09:27:49;;;;;;;18.80;12.20;;;;;;;;;;4919040;29;20055;-68
2023/04/28 09:30:15;;;;;;;18.15;12.55;;;;;;;;;;4901948;29;20048;-68
2023/04/28 09:32:41;;;;;;;21.10;12.13;;;;;;;;;;4901857;29;20509;-68
2023/04/28 09:35:08;;;;;;;18.65;12.43;;;;;;;;;;4901861;29;20083;-68
2023/04/28 09:37:35;;;;;;;20.70;12.50;;;;;;;;;;4901716;29;20079;-68
2023/04/28 09:40:09;;;;;;;22.13;12.65;;;10.30;99.90;;;;;;4902082;29;20052;-69
2023/04/28 09:42:39;;;;;;;24.02;13.43;;;;;;;;;;4918515;29;20075;-68
2023/04/28 09:45:08;;;;;;;18.55;12.32;;;;;;;;;;4901609;29;20079;-69
2023/04/28 09:47:39;;;;;;;22.13;13.07;;;10.40;99.90;;;;;;4918568;29;20048;-69
2023/04/28 09:50:10;;;;;;;18.52;12.45;;;11.10;99.90;;;;;;4886248;29;20040;-69
2023/04/28 09:52:36;;;;;;;21.00;12.18;;;;;;;;;;4901984;29;20385;-69
2023/04/28 09:55:04;;;;;;;21.25;12.75;;;10.20;99.90;;;;;;4918778;29;20060;-69
2023/04/28 09:57:31;;;;;;;22.75;14.00;;;10.30;99.90;;;;;;4901576;29;20437;-69
2023/04/28 09:59:58;;;;;;;22.17;13.90;;;;;;;;;;4900865;29;20541;-69
2023/04/28 10:02:25;;;;;;;22.48;13.57;;;10.30;99.90;;;;;;4885805;29;20135;-69
2023/04/28 10:04:51;;;;;;;20.35;13.32;;;;;;;;;;4901194;29;20059;-68
2023/04/28 10:07:19;;;;;;;19.98;13.73;;;10.30;99.90;;;;;;4901317;29;20047;-67
2023/04/28 10:09:49;;;;;;;22.33;14.38;;;10.40;99.90;;;;;;4885469;29;20493;-66
2023/04/28 10:12:23;;;;;;;19.77;14.27;;;10.30;99.90;;;;;;4901099;29;20044;-69
2023/04/28 10:14:53;;;;;;;23.33;14.90;;;;;;;;;;4901282;29;20044;-67
2023/04/28 10:17:20;;;;;;;20.00;13.43;;;;;;;;;;4901212;29;20397;-67
2023/04/28 10:19:47;;;;;;;25.88;14.63;;;10.10;99.90;;;;;;4901358;29;20132;-67
2023/04/28 10:22:13;;;;;;;23.33;14.18;;;;;;;;;;4901035;29;20080;-67
2023/04/28 10:25:04;;;;;;;25.23;14.18;;;10.10;99.90;;;;;;4900620;29;20151;-67
2023/04/28 10:27:30;;;;;;;24.45;13.95;;;;;;;;;;4917904;29;20044;-67
2023/04/28 10:30:16;;;;;;;23.95;14.55;;;10.10;99.90;;;;;;4900834;29;20055;-67
2023/04/28 10:32:44;;;;;;;22.65;14.70;;;;;;;;;;4918008;29;20067;-67
2023/04/28 10:35:29;;;;;;;21.20;14.60;;;;;;;;;;4900985;29;20425;-67
2023/04/28 10:38:15;;;;;;;21.70;14.23;;;10.40;99.90;;;;;;4900753;29;20040;-67
2023/04/28 10:40:46;;;;;;;25.40;14.60;;;;;;;;;;4900637;29;20058;-67
2023/04/28 10:43:33;;;;;;;24.45;14.48;;;10.10;99.90;;;;;;4900936;29;20456;-67
2023/04/28 10:46:00;;;;;;;24.52;15.27;;;10.10;99.90;;;;;;4917468;29;20044;-67
2023/04/28 10:48:32;;;;;;;25.55;14.65;;;10.20;99.90;;;;;;4900793;29;20080;-67
2023/04/28 10:51:08;;;;;;;22.33;15.32;;;;;;;;;;4900418;29;20497;-68
2023/04/28 10:53:41;;;;;;;25.15;15.00;;;;;;;;;;4900533;29;20149;-68
2023/04/28 10:56:07;;;;;;;27.25;15.48;;;;;;;;;;4885233;29;20044;-68
2023/04/28 10:58:33;;;;;;;23.33;14.82;;;;;;;;;;4900136;29;20048;-68
2023/04/28 11:01:17;;;;;;;22.70;14.40;;;10.30;99.90;;;;;;4900486;29;20048;-68
2023/04/28 11:03:46;;;;;;;25.25;16.10;;;10.40;99.90;;;;;;4884577;29;20116;-68
2023/04/28 11:06:25;;;;;;;25.83;15.88;;;10.30;99.90;;;;;;4884715;29;20051;-68
2023/04/28 11:08:56;;;;;;;24.15;15.48;;;10.40;99.90;;;;;;4884609;29;20048;-68
2023/04/28 11:11:37;;;;;;;26.42;14.98;;;10.20;99.90;;;;;;4899646;29;20513;-68
2023/04/28 11:14:19;;;;;;;26.73;14.18;;;;;;;;;;4884464;29;20040;-68
2023/04/28 11:16:48;;;;;;;26.25;15.50;;;10.20;99.90;;;;;;4900058;29;20079;-68
2023/04/28 11:19:17;;;;;;;33.40;14.30;;;;;;;;;;4884661;29;20441;-68
2023/04/28 11:21:45;;;;;;;21.92;14.98;;;10.40;99.90;;;;;;4900140;29;20051;-68
2023/04/28 11:24:11;;;;;;;24.55;15.48;;;;;;;;;;4917019;29;20131;-68
2023/04/28 11:26:38;;;;;;;26.58;15.43;;;;;;;;;;4899898;29;20048;-68
2023/04/28 11:29:04;;;;;;;26.77;14.95;;;;;;;;;;4900053;29;20040;-68
2023/04/28 11:31:31;;;;;;;25.92;15.90;;;;;;;;;;4884968;29;20048;-68
2023/04/28 11:34:02;;;;;;;24.67;15.20;;;10.60;99.90;;;;;;4899972;29;20036;-68
2023/04/28 11:36:34;;;;;;;19.27;14.70;;;10.50;99.90;;;;;;4916907;29;20107;-68
2023/04/28 11:39:03;;;;;;;28.70;15.82;;;10.50;99.90;;;;;;4916884;29;20044;-68
2023/04/28 11:41:30;;;;;;;23.67;16.27;;;10.70;99.90;;;;;;4885045;29;20127;-68
2023/04/28 11:43:57;;;;;;;29.05;16.73;;;;;;;;;;4900049;29;20412;-68
2023/04/28 11:46:24;;;;;;;23.83;15.27;;;10.60;99.90;;;;;;4916677;29;20047;-68
2023/04/28 11:49:01;;;;;;;24.90;15.60;;;10.40;99.90;;;;;;4899834;29;20047;-68
2023/04/28 11:51:35;;;;;;;24.65;15.95;;;;;;;;;;4899932;29;20055;-68
2023/04/28 11:54:01;;;;;;;24.85;16.45;;;9.70;99.90;;;;;;4900004;29;20056;-68
2023/04/28 11:56:28;;;;;;;28.50;16.67;;;10.70;99.90;;;;;;4899678;29;20091;-68
2023/04/28 11:59:06;;;;;;;27.77;16.80;;;11.20;99.90;;;;;;4916674;29;20072;-68
2023/04/28 12:01:33;;;;;;;24.13;17.05;;;;;;;;;;4900102;29;20071;-69
2023/04/28 12:03:59;;;;;;;22.45;16.67;;;;;;;;;;4900005;29;20131;-68
2023/04/28 12:06:25;;;;;;;27.88;17.02;;;;;;;;;;4884295;29;20154;-68
2023/04/28 12:08:51;;;;;;;22.08;15.93;;;;;;;;;;4883965;29;20400;-68
2023/04/28 12:11:19;;;;;;;24.88;15.52;;;;;;;;;;4884236;29;20079;-68
2023/04/28 12:14:02;;;;;;;21.23;15.00;;;11.60;99.90;;;;;;4899932;29;20124;-68
2023/04/28 12:16:42;;;;;;;28.50;16.83;;;12.00;99.90;;;;;;4884083;29;20059;-68
2023/04/28 12:19:09;;;;;;;26.95;16.38;;;;;;;;;;4899466;29;20059;-68
2023/04/28 12:21:36;;;;;;;29.95;15.32;;;;;;;;;;4899804;29;20127;-68
2023/04/28 12:24:13;;;;;;;22.92;16.23;;;12.00;99.90;;;;;;4918807;29;20052;-68
2023/04/28 12:26:40;;;;;;;26.52;16.55;;;;;;;;;;4903214;29;20465;-68
2023/04/28 12:29:06;;;;;;;23.05;16.33;;;;;;;;;;4903066;29;20052;-68
2023/04/28 12:31:32;;;;;;;24.23;16.15;;;;;;;;;;4902847;29;20103;-68
2023/04/28 12:33:58;;;;;;;23.35;15.68;;;;;;;;;;4902926;29;20048;-68
2023/04/28 12:36:24;;;;;;;29.83;16.75;;;;;;;;;;4919785;29;20040;-68
2023/04/28 12:38:51;;;;;;;26.23;17.25;;;;;;;;;;4902905;29;20052;-68
2023/04/28 12:41:18;;;;;;;24.05;16.40;;;;;;;;;;4903130;29;20099;-68
2023/04/28 12:43:44;;;;;;;22.48;15.73;;;;;;;;;;4902886;29;20052;-68
2023/04/28 12:46:13;;;;;;;24.02;16.88;;;;;;;;;;4887134;29;20040;-68
2023/04/28 12:48:39;;;;;;;24.13;16.15;;;;;;;;;;4902864;29;20047;-68
2023/04/28 12:51:05;;;;;;;23.63;15.60;;;;;;;;;;4902636;29;20184;-68
2023/04/28 12:53:31;;;;;;;26.15;15.93;;;;;;;;;;4887108;29;20063;-68
2023/04/28 12:55:58;;;;;;;24.00;16.77;;;;;;;;;;4902542;29;20044;-68
2023/04/28 12:58:24;;;;;;;23.73;16.85;;;;;;;;;;4902467;29;20115;-68
2023/04/28 13:00:50;;;;;;;22.27;16.50;;;;;;;;;;4902474;29;20068;-68
2023/04/28 13:03:17;;;;;;;25.67;17.33;;;;;;;;;;4902286;29;20547;-68
2023/04/28 13:05:43;;;;;;;24.92;17.88;;;;;;;;;;4886435;29;20044;-68
2023/04/28 13:08:09;;;;;;;24.60;17.67;;;;;;;;;;4902165;29;20052;-67
2023/04/28 13:10:35;;;;;;;23.30;17.15;;;;;;;;;;4902305;29;20600;-68
2023/04/28 13:13:02;;;;;;;27.42;17.98;;;;;;;;;;4902452;29;20075;-68
2023/04/28 13:15:28;;;;;;;26.90;18.40;;;;;;;;;;4902300;29;20052;-68
2023/04/28 13:17:55;;;;;;;25.17;18.08;;;;;;;;;;4902608;29;20058;-68
2023/04/28 13:20:21;;;;;;;25.20;17.77;;;;;;;;;;4902182;29;20572;-68
2023/04/28 13:22:47;;;;;;;27.90;18.58;;;;;;;;;;4919161;29;20393;-68
2023/04/28 13:25:14;;;;;;;24.35;17.88;;;;;;;;;;4870843;29;20091;-68
2023/04/28 13:27:40;;;;;;;25.20;17.90;;;;;;;;;;4902125;29;20046;-68
2023/04/28 13:30:07;;;;;;;25.42;18.20;;;;;;;;;;4902323;29;20066;-67
2023/04/28 13:32:33;;;;;;;33.55;19.33;;;;;;;;;;4918845;29;20075;-68
2023/04/28 13:34:59;;;;;;;26.58;18.17;;;11.90;99.90;;;;;;4901201;29;20071;-68
2023/04/28 13:37:25;;;;;;;32.03;18.85;;;10.70;99.90;;;;;;4886179;29;20465;-68
2023/04/28 13:39:51;;;;;;;27.38;18.83;;;;;;;;;;4901710;29;20089;-68
2023/04/28 13:42:17;;;;;;;26.13;19.08;;;;;;;;;;4901963;29;20040;-68
2023/04/28 13:44:43;;;;;;;29.15;19.52;;;;;;;;;;4918615;29;20044;-68
2023/04/28 13:47:09;;;;;;;30.45;19.77;;;;;;;;;;4901563;29;20044;-68
2023/04/28 13:49:36;;;;;;;28.25;19.30;;;;;;;;;;4901645;29;20040;-68
2023/04/28 13:52:02;;;;;;;28.88;20.08;;;;;;;;;;4918562;29;20051;-68
2023/04/28 13:54:28;;;;;;;27.08;19.73;;;;;;;;;;4902175;29;20040;-68
2023/04/28 13:56:55;;;;;;;30.35;21.25;;;;;;;;;;4918363;29;20040;-68
2023/04/28 13:59:22;;;;;;;30.75;20.77;;;;;;;;;;4901269;29;20063;-68
2023/04/28 14:01:48;;;;;;;28.55;20.70;;;;;;;;;;4918386;29;20104;-68
2023/04/28 14:04:13;;;;;;;27.70;20.70;;;11.30;99.90;;;;;;4885622;29;20478;-67